Time;durP1;ratioP1;P1;durP2;ratioP2;P2;SDS_P1;SDS_P2;PMS_P1;PMS_P2;Temp;Humidity;BMP_temperature;BMP_pressure;BME280_temperature;BME280_humidity;BME280_pressure;Samples;Min_cycle;Max_cycle;Signal;HPM_P1;HPM_P2
2021/08/24 00:01:17;;;;;;;5.93;3.63;;;19.30;99.00;;;;;;4996287;28;20485;-82
2021/08/24 00:03:44;;;;;;;3.57;3.27;;;19.30;98.90;;;;;;5001767;28;20978;-81
2021/08/24 00:06:12;;;;;;;3.37;2.90;;;19.20;99.10;;;;;;5000816;28;20482;-83
2021/08/24 00:08:41;;;;;;;3.43;3.13;;;19.30;99.20;;;;;;5001048;28;20473;-82
2021/08/24 00:11:10;;;;;;;2.90;2.67;;;19.40;98.80;;;;;;5001583;28;20443;-83
2021/08/24 00:13:37;;;;;;;4.37;3.43;;;19.40;98.20;;;;;;5002095;28;20501;-83
2021/08/24 00:16:04;;;;;;;3.57;3.20;;;19.40;98.30;;;;;;5001999;28;20475;-83
2021/08/24 00:18:31;;;;;;;2.90;2.70;;;19.20;98.40;;;;;;5006316;28;20958;-84
2021/08/24 00:20:59;;;;;;;5.93;5.07;;;19.10;98.50;;;;;;5005512;28;20514;-83
2021/08/24 00:23:28;;;;;;;4.60;3.33;;;19.10;98.60;;;;;;5004656;28;20474;-83
2021/08/24 00:25:56;;;;;;;4.30;3.20;;;19.00;98.80;;;;;;5016697;28;20481;-83
2021/08/24 00:28:23;;;;;;;3.60;3.30;;;19.00;99.10;;;;;;5020410;28;20462;-84
2021/08/24 00:30:50;;;;;;;4.93;3.90;;;19.10;99.10;;;;;;5031007;28;20454;-84
2021/08/24 00:33:17;;;;;;;4.23;3.57;;;19.30;98.50;;;;;;5016441;28;20442;-84
2021/08/24 00:35:45;;;;;;;4.07;3.00;;;19.30;98.20;;;;;;5008706;28;20460;-84
2021/08/24 00:38:19;;;;;;;3.30;3.00;;;19.10;98.60;;;;;;5012865;28;20516;-83
2021/08/24 00:40:54;;;;;;;3.20;2.90;;;19.00;99.00;;;;;;5012067;28;20457;-83
2021/08/24 00:43:22;;;;;;;3.80;3.20;;;18.90;99.00;;;;;;5008206;28;20474;-81
2021/08/24 00:45:53;;;;;;;5.10;3.23;;;18.90;99.10;;;;;;5022889;28;20449;-83
2021/08/24 00:48:23;;;;;;;2.90;2.70;;;19.00;98.50;;;;;;5021677;28;20638;-85
2021/08/24 00:50:51;;;;;;;4.93;3.50;;;18.90;98.50;;;;;;5005282;28;20474;-85
2021/08/24 00:53:21;;;;;;;5.47;3.30;;;18.80;99.10;;;;;;4992608;28;20455;-84
2021/08/24 00:55:49;;;;;;;3.67;3.37;;;18.90;99.10;;;;;;5012201;28;20475;-81
2021/08/24 00:58:17;;;;;;;3.50;3.07;;;18.80;99.10;;;;;;4999725;28;20955;-84
2021/08/24 01:00:45;;;;;;;3.47;3.17;;;19.00;98.20;;;;;;5010008;28;20446;-83
2021/08/24 01:03:19;;;;;;;5.73;3.17;;;18.90;98.40;;;;;;4986832;28;20540;-83
2021/08/24 01:05:50;;;;;;;2.43;2.23;;;18.80;98.80;;;;;;5006912;28;20491;-83
2021/08/24 01:08:26;;;;;;;2.67;2.40;;;18.80;98.50;;;;;;5011946;28;20525;-83
2021/08/24 01:11:05;;;;;;;2.97;2.57;;;18.60;98.90;;;;;;4998518;28;20472;-83
2021/08/24 01:13:40;;;;;;;3.43;2.70;;;18.50;99.10;;;;;;5008136;28;20462;-83
2021/08/24 01:16:22;;;;;;;4.10;2.67;;;18.50;99.90;;;;;;5008929;28;20967;-83
2021/08/24 01:19:23;;;;;;;2.80;2.33;;;18.50;99.30;;;;;;5001523;28;20482;-84
2021/08/24 01:21:52;;;;;;;4.13;2.80;;;18.40;99.40;;;;;;4990484;28;20455;-84
2021/08/24 01:24:25;;;;;;;2.57;2.37;;;18.40;99.50;;;;;;5012039;28;20476;-83
2021/08/24 01:27:27;;;;;;;3.47;2.30;;;18.30;99.30;;;;;;5002687;28;20461;-83
2021/08/24 01:30:18;;;;;;;2.80;2.60;;;18.30;99.40;;;;;;4994125;28;20462;-83
2021/08/24 01:33:05;;;;;;;2.60;2.40;;;18.30;99.50;;;;;;4993772;28;20449;-83
2021/08/24 01:36:06;;;;;;;3.60;2.70;;;18.20;99.20;;;;;;5004705;28;21027;-84
2021/08/24 01:38:39;;;;;;;2.33;2.13;;;18.10;99.40;;;;;;5005498;28;20553;-84
2021/08/24 01:41:17;;;;;;;3.80;2.50;;;18.00;99.40;;;;;;4998574;28;20443;-83
2021/08/24 01:44:17;;;;;;;3.03;2.70;;;18.00;99.60;;;;;;5006284;28;20525;-84
2021/08/24 01:46:55;;;;;;;4.43;2.73;;;18.00;99.80;;;;;;4998776;28;20546;-83
2021/08/24 01:49:33;;;;;;;3.33;2.20;;;18.00;99.90;;;;;;4999317;28;20791;-84
2021/08/24 01:52:06;;;;;;;2.50;2.30;;;18.00;99.80;;;;;;5000794;28;20574;-82
2021/08/24 01:54:40;;;;;;;2.90;2.70;;;18.00;99.90;;;;;;5012949;28;20464;-83
2021/08/24 01:57:22;;;;;;;3.43;2.60;;;18.20;99.40;;;;;;5019036;28;20484;-84
2021/08/24 01:59:53;;;;;;;2.80;2.60;;;18.00;99.30;;;;;;5010289;28;20463;-84
2021/08/24 02:02:26;;;;;;;2.70;2.50;;;18.20;99.40;;;;;;5003645;28;20447;-84
2021/08/24 02:04:58;;;;;;;2.90;2.27;;;18.20;99.40;;;;;;5009471;28;20494;-83
2021/08/24 02:07:28;;;;;;;2.53;2.33;;;18.20;99.50;;;;;;5008117;28;20530;-83
2021/08/24 02:10:00;;;;;;;3.33;2.33;;;18.10;99.80;;;;;;5004656;28;20551;-82
2021/08/24 02:12:33;;;;;;;4.90;2.30;;;17.90;99.90;;;;;;5010369;28;20863;-83
2021/08/24 02:15:01;;;;;;;5.67;3.43;;;17.90;99.90;;;;;;5009738;28;21002;-84
2021/08/24 02:17:32;;;;;;;2.53;2.10;;;17.90;99.90;;;;;;5006573;28;20539;-83
2021/08/24 02:20:04;;;;;;;2.70;2.27;;;18.10;99.90;;;;;;5012012;28;20529;-84
2021/08/24 02:22:34;;;;;;;2.77;2.17;;;18.40;99.20;;;;;;5016003;28;21055;-83
2021/08/24 02:25:15;;;;;;;2.60;2.40;;;18.40;98.80;;;;;;5008310;28;20498;-83
2021/08/24 02:27:59;;;;;;;3.23;2.37;;;18.30;98.00;;;;;;5007157;28;20451;-83
2021/08/24 02:30:29;;;;;;;2.83;2.13;;;18.00;98.70;;;;;;5009661;28;20466;-83
2021/08/24 02:32:57;;;;;;;3.17;1.93;;;17.90;99.20;;;;;;5010882;28;20452;-84
2021/08/24 02:35:26;;;;;;;5.57;2.67;;;18.00;99.50;;;;;;5010356;28;21007;-83
2021/08/24 02:38:04;;;;;;;3.20;2.20;;;18.00;99.50;;;;;;5006091;28;20459;-83
2021/08/24 02:40:40;;;;;;;2.17;1.90;;;18.10;99.60;;;;;;5013445;28;21002;-84
2021/08/24 02:43:24;;;;;;;2.10;2.00;;;18.20;98.70;;;;;;5009525;28;20594;-84
2021/08/24 02:46:14;;;;;;;3.47;2.23;;;18.20;98.50;;;;;;5006083;28;20481;-83
2021/08/24 02:48:43;;;;;;;3.73;2.13;;;18.20;98.20;;;;;;5003946;28;20460;-85
2021/08/24 02:51:15;;;;;;;3.80;2.20;;;18.10;98.50;;;;;;4996686;28;20825;-82
2021/08/24 02:53:47;;;;;;;3.70;1.90;;;18.20;98.40;;;;;;5000781;28;20526;-84
2021/08/24 02:56:14;;;;;;;2.50;2.03;;;18.00;98.50;;;;;;5014527;28;20474;-84
2021/08/24 02:58:40;;;;;;;3.00;2.40;;;18.00;98.60;;;;;;5009969;28;20462;-84
2021/08/24 03:01:07;;;;;;;2.23;2.03;;;18.00;98.40;;;;;;5013213;28;20495;-83
2021/08/24 03:03:34;;;;;;;2.60;2.40;;;17.90;98.20;;;;;;5016169;28;20462;-84
2021/08/24 03:06:00;;;;;;;3.63;1.70;;;17.70;98.70;;;;;;5009826;28;20485;-84
2021/08/24 03:08:27;;;;;;;2.80;1.90;;;17.80;99.10;;;;;;5018095;28;20450;-84
2021/08/24 03:10:55;;;;;;;2.60;2.20;;;17.70;98.90;;;;;;5018255;28;20576;-85
2021/08/24 03:13:24;;;;;;;3.23;1.90;;;17.70;99.10;;;;;;5005120;28;20466;-84
2021/08/24 03:16:01;;;;;;;2.20;2.00;;;17.80;99.10;;;;;;5011567;28;20510;-83
2021/08/24 03:18:51;;;;;;;2.50;2.00;;;17.80;99.10;;;;;;5010393;28;20458;-84
2021/08/24 03:21:22;;;;;;;3.00;2.70;;;17.70;99.00;;;;;;5002350;28;20462;-82
2021/08/24 03:23:50;;;;;;;3.30;2.53;;;17.80;98.80;;;;;;5013315;28;20461;-84
2021/08/24 03:26:24;;;;;;;2.80;2.03;;;17.80;98.80;;;;;;5004422;28;20462;-84
2021/08/24 03:28:52;;;;;;;2.83;1.97;;;17.80;98.80;;;;;;5013163;28;20966;-84
2021/08/24 03:31:20;;;;;;;2.17;2.07;;;17.80;98.80;;;;;;5006925;28;20449;-84
2021/08/24 03:33:47;;;;;;;4.17;2.00;;;17.60;99.00;;;;;;5006592;28;20494;-84
2021/08/24 03:36:15;;;;;;;2.10;1.90;;;17.60;99.20;;;;;;5001555;28;20469;-85
2021/08/24 03:38:42;;;;;;;2.23;1.93;;;17.60;99.50;;;;;;5007441;28;20508;-83
2021/08/24 03:41:11;;;;;;;2.93;2.10;;;17.60;99.30;;;;;;5001067;28;20457;-83
2021/08/24 03:43:38;;;;;;;2.60;1.90;;;17.70;99.20;;;;;;4996978;28;20455;-83
2021/08/24 03:46:05;;;;;;;2.30;2.00;;;17.60;99.20;;;;;;5011641;28;20486;-84
2021/08/24 03:48:32;;;;;;;6.50;2.03;;;17.60;99.30;;;;;;5008425;28;20434;-84
2021/08/24 03:50:59;;;;;;;4.07;2.30;;;17.60;99.10;;;;;;5009091;28;20474;-83
2021/08/24 03:53:26;;;;;;;3.20;2.10;;;17.70;98.80;;;;;;5004760;28;20447;-83
2021/08/24 03:55:54;;;;;;;3.07;2.47;;;17.70;98.60;;;;;;5008735;28;20479;-83
2021/08/24 03:58:20;;;;;;;2.20;2.00;;;17.50;99.10;;;;;;4998718;28;20471;-84
2021/08/24 04:00:48;;;;;;;3.70;2.20;;;17.50;99.20;;;;;;5006182;28;20543;-83
2021/08/24 04:03:15;;;;;;;2.77;2.10;;;17.50;99.20;;;;;;5000828;28;20451;-83
2021/08/24 04:05:42;;;;;;;2.17;2.03;;;17.50;99.40;;;;;;5008491;28;20487;-83
2021/08/24 04:08:09;;;;;;;2.23;1.80;;;17.40;99.60;;;;;;5014477;28;20453;-83
2021/08/24 04:10:37;;;;;;;3.70;2.20;;;17.40;99.70;;;;;;5009260;28;20538;-85
2021/08/24 04:13:03;;;;;;;2.30;2.10;;;17.30;99.80;;;;;;5018798;28;20464;-82
2021/08/24 04:15:30;;;;;;;3.50;2.30;;;17.40;99.90;;;;;;5014549;28;20526;-84
2021/08/24 04:17:57;;;;;;;1.77;1.67;;;17.40;99.60;;;;;;5014096;28;20471;-84
2021/08/24 04:20:24;;;;;;;1.73;1.63;;;17.30;99.80;;;;;;5017691;28;20505;-83
2021/08/24 04:22:51;;;;;;;2.43;1.87;;;17.30;99.90;;;;;;5011257;28;20479;-81
2021/08/24 04:25:19;;;;;;;2.17;1.87;;;17.30;99.90;;;;;;5012888;28;20491;-81
2021/08/24 04:27:46;;;;;;;1.90;1.70;;;17.30;99.90;;;;;;5018079;28;20451;-83
2021/08/24 04:30:13;;;;;;;2.90;1.70;;;17.20;99.90;;;;;;5020370;28;20497;-83
2021/08/24 04:32:43;;;;;;;3.17;1.90;;;17.30;99.90;;;;;;5001127;28;20793;-84
2021/08/24 04:35:11;;;;;;;5.50;2.70;;;17.20;99.90;;;;;;4997554;28;21340;-84
2021/08/24 04:37:38;;;;;;;3.57;2.57;;;17.10;99.90;;;;;;4996844;28;20712;-82
2021/08/24 04:40:05;;;;;;;2.27;2.03;;;17.30;99.90;;;;;;5006644;28;20460;-83
2021/08/24 04:42:32;;;;;;;2.87;2.67;;;17.20;99.90;;;;;;5001304;28;20457;-83
2021/08/24 04:44:59;;;;;;;3.03;2.23;;;17.20;99.90;;;;;;5006992;28;20832;-83
2021/08/24 04:47:26;;;;;;;2.70;2.00;;;17.20;99.90;;;;;;4998174;28;20490;-82
2021/08/24 04:49:52;;;;;;;2.33;2.10;;;17.10;99.90;;;;;;5003263;28;20439;-83
2021/08/24 04:52:19;;;;;;;3.03;2.27;;;17.20;99.90;;;;;;5001075;28;20461;-83
2021/08/24 04:54:46;;;;;;;3.20;2.27;;;17.10;99.70;;;;;;5007235;28;20940;-83
2021/08/24 04:57:12;;;;;;;2.80;2.33;;;17.00;99.90;;;;;;5002894;28;20799;-83
2021/08/24 04:59:42;;;;;;;5.70;2.23;;;17.00;99.90;;;;;;4999770;28;20511;-84
2021/08/24 05:02:08;;;;;;;4.30;2.63;;;17.00;99.90;;;;;;5002030;28;20446;-83
2021/08/24 05:04:36;;;;;;;2.67;1.90;;;17.00;99.90;;;;;;4995817;28;21234;-82
2021/08/24 05:07:05;;;;;;;2.50;2.30;;;17.00;99.90;;;;;;5001430;28;20914;-83
2021/08/24 05:09:33;;;;;;;2.10;1.90;;;17.00;99.90;;;;;;5001198;28;20450;-82
2021/08/24 05:12:14;;;;;;;2.70;2.37;;;17.00;99.80;;;;;;4999356;28;20462;-83
2021/08/24 05:15:08;;;;;;;2.23;2.00;;;17.20;99.50;;;;;;5003016;28;20471;-82
2021/08/24 05:17:35;;;;;;;7.10;2.33;;;17.20;99.00;;;;;;5001217;28;20472;-83
2021/08/24 05:20:06;;;;;;;4.67;2.50;;;17.20;99.00;;;;;;5007102;28;20450;-81
2021/08/24 05:22:33;;;;;;;3.27;2.03;;;17.20;98.70;;;;;;5002634;28;20455;-82
2021/08/24 05:25:02;;;;;;;4.13;2.60;;;17.20;98.90;;;;;;4991482;28;20489;-80
2021/08/24 05:27:31;;;;;;;5.50;2.23;;;17.30;98.60;;;;;;4960178;28;20451;-81
2021/08/24 05:30:02;;;;;;;2.30;2.10;;;17.30;98.30;;;;;;4975274;28;20465;-82
2021/08/24 05:32:28;;;;;;;3.33;3.03;;;17.20;98.30;;;;;;4971323;28;20466;-79
2021/08/24 05:34:55;;;;;;;2.40;2.20;;;17.10;98.60;;;;;;4972777;28;20542;-81
2021/08/24 05:37:22;;;;;;;2.07;1.87;;;17.30;98.40;;;;;;4970676;28;20506;-82
2021/08/24 05:39:49;;;;;;;3.20;2.60;;;17.10;98.70;;;;;;4964586;28;20553;-83
2021/08/24 05:42:15;;;;;;;3.87;2.63;;;17.20;98.90;;;;;;4967288;28;20462;-82
2021/08/24 05:44:43;;;;;;;2.30;2.10;;;17.30;98.70;;;;;;4957509;28;20495;-81
2021/08/24 05:47:10;;;;;;;2.93;2.60;;;17.20;99.10;;;;;;4964867;28;20712;-84
2021/08/24 05:49:37;;;;;;;2.50;2.30;;;17.30;99.20;;;;;;4966718;28;20851;-83
2021/08/24 05:52:04;;;;;;;4.30;2.20;;;17.50;98.80;;;;;;4962295;28;20573;-79
2021/08/24 05:54:31;;;;;;;3.87;2.10;;;17.70;98.20;;;;;;4966355;28;20453;-80
2021/08/24 05:56:59;;;;;;;3.70;2.37;;;17.50;98.10;;;;;;4959422;28;20532;-84
2021/08/24 05:59:25;;;;;;;3.27;2.30;;;17.70;98.30;;;;;;4970653;28;20457;-82
2021/08/24 06:01:52;;;;;;;2.80;2.30;;;17.90;97.50;;;;;;4972288;28;22492;-83
2021/08/24 06:04:19;;;;;;;5.07;2.13;;;17.70;97.20;;;;;;4973261;28;20446;-81
2021/08/24 06:06:51;;;;;;;2.13;1.90;;;17.70;97.80;;;;;;4975336;28;20478;-80
2021/08/24 06:09:20;;;;;;;2.53;2.20;;;18.70;98.20;;;;;;4976291;28;20509;-84
2021/08/24 06:11:50;;;;;;;5.20;2.37;;;21.30;94.80;;;;;;4979453;28;20475;-81
2021/08/24 06:14:21;;;;;;;4.47;2.73;;;23.70;90.00;;;;;;4975761;28;20452;-81
2021/08/24 06:16:57;;;;;;;3.23;2.30;;;25.70;81.80;;;;;;4978197;28;20501;-82
2021/08/24 06:19:25;;;;;;;4.00;2.57;;;27.40;72.80;;;;;;5017596;28;20469;-83
2021/08/24 06:21:56;;;;;;;2.83;2.13;;;28.10;66.10;;;;;;5018035;28;20498;-82
2021/08/24 06:24:25;;;;;;;2.97;2.30;;;29.30;61.70;;;;;;5005780;28;20445;-83
2021/08/24 06:26:52;;;;;;;3.00;2.50;;;30.50;57.00;;;;;;5022842;28;20508;-82
2021/08/24 06:29:22;;;;;;;6.20;2.30;;;31.20;53.80;;;;;;5018879;28;20450;-83
2021/08/24 06:31:53;;;;;;;2.50;2.30;;;31.10;52.50;;;;;;5010217;28;20539;-84
2021/08/24 06:34:21;;;;;;;2.67;2.00;;;31.10;52.40;;;;;;4993753;28;20527;-84
2021/08/24 06:36:52;;;;;;;2.63;2.43;;;30.90;51.90;;;;;;5014024;28;20489;-84
2021/08/24 06:39:20;;;;;;;6.50;1.90;;;31.40;51.30;;;;;;5013855;28;20442;-84
2021/08/24 06:41:46;;;;;;;2.67;2.47;;;31.80;50.00;;;;;;5012189;28;20463;-84
2021/08/24 06:44:14;;;;;;;1.83;1.73;;;31.40;49.90;;;;;;5000097;28;20459;-85
2021/08/24 06:46:51;;;;;;;2.50;2.30;;;32.00;48.70;;;;;;5014653;28;20514;-83
2021/08/24 06:49:20;;;;;;;3.80;2.10;;;32.70;48.60;;;;;;5013198;28;20430;-84
2021/08/24 06:51:57;;;;;;;1.73;1.63;;;33.40;46.10;;;;;;4994390;28;20452;-84
2021/08/24 06:54:23;;;;;;;3.40;2.10;;;33.30;45.00;;;;;;4998780;28;20442;-84
2021/08/24 06:56:52;;;;;;;2.87;2.13;;;32.70;45.30;;;;;;5004273;28;20479;-85
2021/08/24 06:59:19;;;;;;;3.07;1.83;;;32.80;46.30;;;;;;5008694;28;20497;-83
2021/08/24 07:01:47;;;;;;;3.33;2.10;;;32.50;45.50;;;;;;5007485;28;20477;-83
2021/08/24 07:04:17;;;;;;;2.07;1.40;;;32.60;46.10;;;;;;4996817;28;20562;-86
2021/08/24 07:06:47;;;;;;;4.50;2.20;;;33.30;45.20;;;;;;4998815;28;20499;-85
2021/08/24 07:09:15;;;;;;;5.00;2.27;;;33.50;44.70;;;;;;4961336;28;20465;-83
2021/08/24 07:11:41;;;;;;;2.23;1.93;;;33.50;43.60;;;;;;4957749;28;20511;-82
2021/08/24 07:14:10;;;;;;;4.90;1.90;;;33.80;43.70;;;;;;4972854;28;21973;-82
2021/08/24 07:16:41;;;;;;;3.67;1.80;;;34.00;43.30;;;;;;4953272;28;20519;-83
2021/08/24 07:19:08;;;;;;;4.40;1.63;;;34.80;41.80;;;;;;4984936;28;20977;-85
2021/08/24 07:21:35;;;;;;;2.47;2.00;;;34.50;41.20;;;;;;5001793;28;20514;-84
2021/08/24 07:24:02;;;;;;;1.80;1.37;;;34.40;41.60;;;;;;5002574;28;20534;-83
2021/08/24 07:26:29;;;;;;;1.70;1.60;;;35.00;40.10;;;;;;5004481;28;20494;-84
2021/08/24 07:28:58;;;;;;;2.67;2.10;;;35.00;40.60;;;;;;5006095;28;20462;-83
2021/08/24 07:31:28;;;;;;;1.67;1.57;;;34.70;39.60;;;;;;4985800;28;20475;-81
2021/08/24 07:33:56;;;;;;;1.70;1.60;;;33.90;41.40;;;;;;4961472;28;22008;-82
2021/08/24 07:36:22;;;;;;;4.17;1.90;;;34.70;40.20;;;;;;4964266;28;20604;-84
2021/08/24 07:38:49;;;;;;;2.00;1.60;;;34.60;40.00;;;;;;4963617;28;20451;-82
2021/08/24 07:41:21;;;;;;;4.53;2.00;;;35.10;39.60;;;;;;4963869;28;20606;-85
2021/08/24 07:43:48;;;;;;;6.63;1.70;;;35.80;38.80;;;;;;5015061;28;20461;-84
2021/08/24 07:46:14;;;;;;;1.30;1.20;;;35.70;36.60;;;;;;5010202;28;20532;-84
2021/08/24 07:48:41;;;;;;;1.57;1.43;;;34.30;37.80;;;;;;5006171;28;20486;-84
2021/08/24 07:51:08;;;;;;;2.93;1.30;;;34.00;38.10;;;;;;4995395;28;20456;-84
2021/08/24 07:53:36;;;;;;;1.93;1.77;;;33.90;37.90;;;;;;5007675;28;20463;-84
2021/08/24 07:56:04;;;;;;;2.50;1.90;;;33.10;39.00;;;;;;5018548;28;20512;-85
2021/08/24 07:58:31;;;;;;;1.67;1.57;;;32.70;39.90;;;;;;4998815;28;20482;-84
2021/08/24 08:01:00;;;;;;;3.50;1.60;;;33.40;39.20;;;;;;4997070;28;20464;-83
2021/08/24 08:03:27;;;;;;;3.47;1.90;;;33.60;38.30;;;;;;5008235;28;20442;-85
2021/08/24 08:05:59;;;;;;;2.73;1.40;;;33.90;37.80;;;;;;5010849;28;20550;-85
2021/08/24 08:08:26;;;;;;;1.80;1.70;;;33.80;37.20;;;;;;5001325;28;20456;-85
2021/08/24 08:10:56;;;;;;;1.80;1.70;;;34.00;37.70;;;;;;4999937;28;20872;-86
2021/08/24 08:13:39;;;;;;;3.40;1.60;;;34.60;36.60;;;;;;5008586;28;20459;-82
2021/08/24 08:16:43;;;;;;;1.90;1.80;;;35.50;36.00;;;;;;5005309;28;20558;-84
2021/08/24 08:19:21;;;;;;;2.13;1.93;;;35.10;36.30;;;;;;5002496;28;20482;-83
2021/08/24 08:21:48;;;;;;;1.70;1.60;;;35.80;35.20;;;;;;4998930;28;20459;-84
2021/08/24 08:29:45;;;;;;;5.90;1.67;;;35.40;35.70;;;;;;4979336;28;20502;-86
2021/08/24 08:32:29;;;;;;;2.70;2.07;;;35.60;35.60;;;;;;4970363;28;20464;-85
2021/08/24 08:35:07;;;;;;;2.70;1.40;;;36.30;33.00;;;;;;4963675;28;20543;-84
2021/08/24 08:37:34;;;;;;;2.03;1.43;;;35.90;32.70;;;;;;4955515;28;20520;-85
2021/08/24 08:40:05;;;;;;;1.80;1.50;;;35.70;33.30;;;;;;4945612;28;20461;-84
2021/08/24 08:42:47;;;;;;;2.30;1.80;;;35.90;32.80;;;;;;4954674;28;20448;-85
2021/08/24 08:45:27;;;;;;;2.60;2.20;;;36.10;32.10;;;;;;4973442;28;20540;-82
2021/08/24 08:48:19;;;;;;;2.30;2.10;;;35.90;31.90;;;;;;4955579;28;20436;-84
2021/08/24 08:50:53;;;;;;;2.63;1.80;;;35.50;32.40;;;;;;4964243;28;20441;-85
2021/08/24 08:53:35;;;;;;;1.90;1.60;;;36.10;31.70;;;;;;4969847;28;20444;-85
2021/08/24 08:56:11;;;;;;;1.77;1.50;;;36.30;30.20;;;;;;4973606;28;20513;-85
2021/08/24 08:58:57;;;;;;;2.03;1.93;;;35.50;31.50;;;;;;4962833;28;20451;-85
2021/08/24 09:01:36;;;;;;;5.53;2.10;;;35.60;31.40;;;;;;4965186;28;20548;-85
2021/08/24 09:04:26;;;;;;;1.93;1.80;;;35.10;31.90;;;;;;4978467;28;20463;-85
2021/08/24 09:06:57;;;;;;;2.20;2.00;;;33.90;32.80;;;;;;4942828;29;20480;-85
2021/08/24 09:09:25;;;;;;;2.03;1.80;;;34.40;32.40;;;;;;4950916;28;20451;-85
2021/08/24 09:11:52;;;;;;;2.83;1.80;;;34.30;32.60;;;;;;4979478;28;20456;-86
2021/08/24 09:14:28;;;;;;;2.20;2.00;;;33.60;32.10;;;;;;4975864;28;20471;-84
2021/08/24 09:17:42;;;;;;;2.47;1.87;;;32.60;31.40;;;;;;4946143;29;20976;-85
2021/08/24 09:20:27;;;;;;;2.30;2.10;;;31.70;32.60;;;;;;4976804;28;20531;-85
2021/08/24 09:22:54;;;;;;;2.17;2.00;;;31.80;33.10;;;;;;4956108;29;20445;-84
2021/08/24 09:26:07;;;;;;;2.40;2.20;;;31.90;32.70;;;;;;4948084;28;20504;-84
2021/08/24 09:29:14;;;;;;;2.00;1.50;;;32.30;31.80;;;;;;4925740;29;20491;-85
2021/08/24 09:32:40;;;;;;;2.67;2.40;;;31.30;33.00;;;;;;4953716;29;20448;-84
2021/08/24 09:39:29;;;;;;;2.10;1.77;;;30.70;33.80;;;;;;4983329;28;20883;-85
2021/08/24 09:43:15;;;;;;;2.70;2.40;;;30.40;34.10;;;;;;4924956;28;20457;-85
2021/08/24 09:50:44;;;;;;;;;;;;;;;;;;;;;
2021/08/24 09:53:59;;;;;;;2.83;2.20;;;31.50;33.80;;;;;;4916911;28;20470;-84
2021/08/24 09:57:34;;;;;;;2.40;2.07;;;31.60;33.10;;;;;;4862803;29;20510;-85
2021/08/24 10:04:07;;;;;;;5.53;3.00;;;33.40;31.60;;;;;;4841456;29;20530;-85
2021/08/24 10:07:06;;;;;;;2.63;2.43;;;32.60;30.70;;;;;;4831786;29;21053;-82
2021/08/24 10:10:19;;;;;;;2.80;2.27;;;32.10;31.00;;;;;;4829926;29;20454;-85
2021/08/24 10:13:15;;;;;;;4.60;2.57;;;31.90;31.40;;;;;;4841891;29;20489;-83
2021/08/24 10:15:42;;;;;;;2.93;2.73;;;32.10;32.00;;;;;;4874504;29;20485;-84
2021/08/24 10:18:26;;;;;;;3.00;2.37;;;31.90;32.00;;;;;;4875283;29;20477;-86
2021/08/24 10:21:03;;;;;;;2.60;2.40;;;31.40;32.20;;;;;;4899502;29;20500;-85
2021/08/24 10:23:38;;;;;;;4.50;1.77;;;31.50;32.80;;;;;;4882348;29;20481;-84
2021/08/24 10:26:10;;;;;;;2.63;2.27;;;31.60;31.90;;;;;;4940763;29;20492;-84
2021/08/24 10:28:52;;;;;;;2.60;2.40;;;30.80;32.70;;;;;;4960404;29;20480;-84
2021/08/24 10:31:42;;;;;;;2.53;2.33;;;31.20;33.20;;;;;;4953214;29;20826;-84
2021/08/24 10:34:10;;;;;;;2.93;2.70;;;31.40;32.40;;;;;;4918848;29;20442;-83
2021/08/24 10:36:43;;;;;;;2.73;2.53;;;30.90;32.70;;;;;;4944928;29;20477;-85
2021/08/24 10:39:22;;;;;;;3.27;2.13;;;30.50;33.50;;;;;;4973635;28;20456;-84
2021/08/24 10:42:07;;;;;;;2.80;2.50;;;30.50;33.60;;;;;;4976224;28;20455;-86
2021/08/24 10:44:55;;;;;;;2.53;2.33;;;30.60;33.90;;;;;;4966661;28;20544;-85
2021/08/24 10:47:29;;;;;;;2.53;2.33;;;30.70;32.90;;;;;;4937849;28;20465;-85
2021/08/24 10:49:59;;;;;;;2.97;2.60;;;30.30;33.60;;;;;;4949041;29;20480;-85
2021/08/24 10:53:00;;;;;;;2.30;2.10;;;30.40;32.90;;;;;;4955716;28;20456;-84
2021/08/24 10:55:31;;;;;;;3.73;2.70;;;30.10;33.70;;;;;;4952711;29;20474;-83
2021/08/24 10:58:18;;;;;;;3.40;2.53;;;30.30;33.30;;;;;;4969683;28;20544;-85
2021/08/24 11:00:44;;;;;;;2.53;2.23;;;30.50;32.90;;;;;;4955365;29;20452;-84
2021/08/24 11:03:47;;;;;;;4.40;2.60;;;30.20;33.30;;;;;;4954401;28;20825;-85
2021/08/24 11:06:52;;;;;;;2.60;2.30;;;30.40;34.50;;;;;;4942469;28;20491;-85
2021/08/24 11:09:43;;;;;;;2.83;2.47;;;31.10;33.30;;;;;;4934838;28;20530;-85
2021/08/24 11:12:22;;;;;;;2.73;2.50;;;30.90;33.50;;;;;;4962890;28;20454;-84
2021/08/24 11:14:58;;;;;;;3.00;2.70;;;30.90;34.00;;;;;;4958888;29;20461;-84
2021/08/24 11:17:46;;;;;;;2.40;2.20;;;30.70;33.90;;;;;;4972313;28;20485;-84
2021/08/24 11:20:32;;;;;;;2.80;2.37;;;30.60;33.90;;;;;;4957364;28;20471;-85
2021/08/24 11:27:19;;;;;;;2.90;2.70;;;31.00;32.10;;;;;;4937481;28;20899;-85
2021/08/24 11:29:53;;;;;;;2.93;2.37;;;30.50;31.20;;;;;;4957879;28;20460;-84
2021/08/24 11:32:46;;;;;;;3.70;2.37;;;30.20;30.80;;;;;;4958615;28;20445;-86
2021/08/24 11:36:14;;;;;;;;;;;;;;;;;;;;;
2021/08/24 11:39:46;;;;;;;2.37;2.17;;;30.00;32.80;;;;;;4919405;28;20576;-85
2021/08/24 11:43:33;;;;;;;3.30;2.40;;;30.30;32.90;;;;;;4944978;28;20446;-85
2021/08/24 11:51:52;;;;;;;;;;;;;;;;;;;;;
2021/08/24 11:54:40;;;;;;;;;;;;;;;;;;;;;
2021/08/24 11:58:06;;;;;;;;;;;;;;;;;;;;;
2021/08/24 12:01:33;;;;;;;;;;;;;;;;;;;;;
2021/08/24 12:05:07;;;;;;;2.23;1.93;;;29.80;34.90;;;;;;4927343;28;20456;-85
2021/08/24 12:08:09;;;;;;;3.20;2.23;;;30.10;35.20;;;;;;4939538;28;20479;-85
2021/08/24 12:11:28;;;;;;;2.97;2.63;;;30.40;34.00;;;;;;4947664;28;20831;-84
2021/08/24 12:14:29;;;;;;;2.90;2.40;;;29.50;34.40;;;;;;4957581;28;20800;-84
2021/08/24 12:17:34;;;;;;;2.90;2.60;;;29.30;36.80;;;;;;4948563;28;20485;-85
2021/08/24 12:24:26;;;;;;;5.63;2.07;;;29.50;35.40;;;;;;4951606;29;20517;-84
2021/08/24 12:27:05;;;;;;;2.60;2.37;;;30.20;35.80;;;;;;4940387;29;20544;-85
2021/08/24 12:30:16;;;;;;;;;;;;;;;;;;;;;
2021/08/24 12:36:46;;;;;;;2.17;1.97;;;29.70;36.30;;;;;;4970449;28;20549;-83
2021/08/24 12:40:31;;;;;;;;;;;;;;;;;;;;;
2021/08/24 12:43:54;;;;;;;;;;;;;;;;;;;;;
2021/08/24 12:50:44;;;;;;;2.77;2.27;;;29.80;37.20;;;;;;4933918;29;20441;-85
2021/08/24 12:53:58;;;;;;;2.60;2.40;;;29.60;37.00;;;;;;4938864;29;20449;-83
2021/08/24 12:57:09;;;;;;;3.00;2.40;;;29.80;37.50;;;;;;4931264;29;20482;-84
2021/08/24 13:00:10;;;;;;;2.60;2.10;;;29.50;36.90;;;;;;4968034;28;20457;-83
2021/08/24 13:07:15;;;;;;;3.00;2.60;;;29.30;39.00;;;;;;4967277;28;20484;-81
2021/08/24 13:10:38;;;;;;;4.07;2.83;;;29.60;38.80;;;;;;4952788;28;20493;-84
2021/08/24 13:13:37;;;;;;;2.30;2.10;;;30.00;37.60;;;;;;4946938;29;20458;-83
2021/08/24 13:16:33;;;;;;;2.70;2.30;;;29.60;38.00;;;;;;4957818;29;21106;-84
2021/08/24 13:22:59;;;;;;;2.40;2.20;;;29.40;38.70;;;;;;4969663;28;20436;-85
2021/08/24 13:25:56;;;;;;;2.70;2.50;;;29.40;39.20;;;;;;4944014;29;20457;-85
2021/08/24 13:28:55;;;;;;;3.83;2.57;;;29.40;39.10;;;;;;4970224;28;20454;-82
2021/08/24 13:31:51;;;;;;;2.77;2.50;;;29.20;39.60;;;;;;4940416;28;20471;-81
2021/08/24 13:34:59;;;;;;;2.97;2.67;;;29.40;39.40;;;;;;4934835;28;20477;-82
2021/08/24 13:38:55;;;;;;;5.13;2.90;;;29.60;38.40;;;;;;4944397;28;20492;-84
2021/08/24 13:41:44;;;;;;;2.70;2.50;;;29.50;39.40;;;;;;4930413;28;20528;-84
2021/08/24 13:44:34;;;;;;;3.90;2.43;;;29.40;39.60;;;;;;4966712;28;20480;-83
2021/08/24 13:47:17;;;;;;;;;;;;;;;;;;;;;
2021/08/24 13:54:36;;;;;;;3.07;2.77;;;29.00;40.00;;;;;;4906428;29;20436;-84
2021/08/24 13:57:16;;;;;;;3.23;2.93;;;28.50;40.70;;;;;;4846458;29;20495;-80
2021/08/24 14:00:26;;;;;;;3.23;2.93;;;28.30;41.10;;;;;;4842668;29;20467;-82
2021/08/24 14:07:01;;;;;;;7.27;2.83;;;28.20;42.50;;;;;;4868097;29;20536;-81
2021/08/24 14:09:48;;;;;;;2.90;2.37;;;28.20;42.50;;;;;;4854895;29;20488;-81
2021/08/24 14:12:47;;;;;;;3.17;2.57;;;28.70;42.40;;;;;;4852901;29;20455;-84
2021/08/24 14:15:35;;;;;;;4.00;2.80;;;28.60;41.80;;;;;;4851508;29;20491;-79
2021/08/24 14:18:47;;;;;;;3.03;2.73;;;28.20;42.40;;;;;;4846560;29;20487;-82
2021/08/24 14:21:26;;;;;;;4.67;3.07;;;27.70;42.80;;;;;;4847099;29;20987;-86
2021/08/24 14:24:11;;;;;;;8.20;2.67;;;27.80;43.00;;;;;;4846256;29;20467;-85
2021/08/24 14:26:48;;;;;;;3.47;2.70;;;27.70;43.70;;;;;;4862317;29;20483;-83
2021/08/24 14:29:19;;;;;;;3.90;2.60;;;27.50;44.10;;;;;;4880299;29;20479;-83
2021/08/24 14:31:49;;;;;;;3.50;2.60;;;27.70;44.20;;;;;;4921826;28;20460;-82
2021/08/24 14:34:35;;;;;;;3.73;2.40;;;27.40;44.20;;;;;;4905113;29;21605;-84
2021/08/24 14:37:19;;;;;;;3.13;2.77;;;27.10;45.00;;;;;;4907146;29;20853;-81
2021/08/24 14:40:05;;;;;;;3.33;2.80;;;27.10;45.00;;;;;;4906384;29;20640;-83
2021/08/24 14:42:41;;;;;;;2.77;2.40;;;27.10;45.50;;;;;;4913877;28;21672;-82
2021/08/24 14:45:27;;;;;;;5.20;2.80;;;27.20;45.00;;;;;;4921060;29;20477;-83
2021/08/24 14:48:08;;;;;;;3.70;3.17;;;27.30;44.80;;;;;;4219751;29;10001264;-83
2021/08/24 14:50:45;;;;;;;2.50;2.30;;;27.40;45.40;;;;;;4905304;29;20457;-82
2021/08/24 14:53:27;;;;;;;3.10;2.40;;;27.50;45.10;;;;;;4902498;29;21041;-83